Time;durP1;ratioP1;P1;durP2;ratioP2;P2;SDS_P1;SDS_P2;PMS_P1;PMS_P2;Temp;Humidity;BMP_temperature;BMP_pressure;BME280_temperature;BME280_humidity;BME280_pressure;Samples;Min_cycle;Max_cycle;Signal;HPM_P1;HPM_P2
2023/10/27 00:01:19;;;;;;;;;;;;;;;29.72;27.61;96211.38;4921917;29;19919;-96
2023/10/27 00:03:45;;;;;;;;;;;;;;;29.62;27.93;96219.34;4932550;29;19923;-96
2023/10/27 00:06:11;;;;;;;;;;;;;;;29.68;27.73;96220.13;4939625;29;19914;-96
2023/10/27 00:08:37;;;;;;;;;;;;;;;30.28;26.91;96217.66;4934251;29;19930;-96
2023/10/27 00:11:05;;;;;;;;;;;;;;;30.81;26.47;96222.84;4926609;29;19947;-96
2023/10/27 00:13:31;;;;;;;;;;;;;;;31.08;25.79;96221.16;4941449;29;19927;-96
2023/10/27 00:15:57;;;;;;;;;;;;;;;31.13;26.08;96214.69;4941515;29;19923;-96
2023/10/27 00:18:23;;;;;;;;;;;;;;;31.21;25.55;96212.78;4930522;29;19912;-96
2023/10/27 00:20:49;;;;;;;;;;;;;;;31.39;25.36;96212.16;4943895;29;19903;-96
2023/10/27 00:23:15;;;;;;;;;;;;;;;31.15;25.52;96212.84;4948515;29;20013;-96
2023/10/27 00:25:41;;;;;;;;;;;;;;;31.11;25.95;96222.94;4927225;29;20031;-96
2023/10/27 00:28:07;;;;;;;;;;;;;;;31.14;25.94;96228.31;4924371;29;19991;-96
2023/10/27 00:30:33;;;;;;;;;;;;;;;30.80;26.26;96223.38;4922595;29;19950;-96
2023/10/27 00:32:59;;;;;;;;;;;;;;;30.61;26.75;96223.22;4940763;29;19931;-96
2023/10/27 00:35:25;;;;;;;;;;;;;;;30.83;26.32;96222.31;4942745;29;19907;-91
2023/10/27 00:37:51;;;;;;;;;;;;;;;30.55;26.45;96225.31;4943193;29;19952;-96
2023/10/27 00:40:17;;;;;;;;;;;;;;;29.97;27.07;96219.56;4934557;29;19923;-96
2023/10/27 00:42:43;;;;;;;;;;;;;;;29.90;27.41;96210.84;4923356;29;19923;-96
2023/10/27 00:45:10;;;;;;;;;;;;;;;30.01;27.24;96224.97;4934010;29;19930;-96
2023/10/27 00:47:36;;;;;;;;;;;;;;;30.56;26.67;96213.44;4942841;29;19939;-96
2023/10/27 00:50:02;;;;;;;;;;;;;;;30.20;27.33;96200.44;4940037;29;19935;-95
2023/10/27 00:52:29;;;;;;;;;;;;;;;29.96;27.51;96198.22;4941931;29;19923;-96
2023/10/27 00:54:55;;;;;;;;;;;;;;;29.86;27.43;96187.69;4916344;29;19952;-96
2023/10/27 00:57:22;;;;;;;;;;;;;;;30.15;27.29;96186.31;4942722;29;19914;-96
2023/10/27 00:59:50;;;;;;;;;;;;;;;30.19;27.13;96179.09;4941608;28;19911;-96
2023/10/27 01:02:18;;;;;;;;;;;;;;;30.06;27.17;96174.00;4943066;29;19907;-89
2023/10/27 01:04:45;;;;;;;;;;;;;;;30.13;26.81;96172.69;4925307;29;19938;-88
2023/10/27 01:07:11;;;;;;;;;;;;;;;30.22;26.65;96166.75;4923928;29;19907;-88
2023/10/27 01:09:37;;;;;;;;;;;;;;;30.34;26.47;96161.81;4923566;29;19919;-96
2023/10/27 01:12:03;;;;;;;;;;;;;;;30.40;26.30;96169.00;4923655;29;19967;-92
2023/10/27 01:14:29;;;;;;;;;;;;;;;30.36;26.49;96165.69;4923914;29;19908;-87
2023/10/27 01:16:56;;;;;;;;;;;;;;;30.02;26.54;96165.00;4923647;29;19964;-86
2023/10/27 01:19:22;;;;;;;;;;;;;;;29.75;27.06;96170.72;4923834;29;19927;-84
2023/10/27 01:21:48;;;;;;;;;;;;;;;29.63;26.74;96164.34;4923942;29;19911;-84
2023/10/27 01:24:14;;;;;;;;;;;;;;;29.74;26.85;96157.88;4923846;29;19934;-85
2023/10/27 01:26:40;;;;;;;;;;;;;;;29.72;26.89;96152.72;4923275;29;19926;-94
2023/10/27 01:29:06;;;;;;;;;;;;;;;29.74;26.80;96155.81;4929268;29;19979;-96
2023/10/27 01:31:32;;;;;;;;;;;;;;;29.79;27.00;96149.41;4942246;29;20002;-95
2023/10/27 01:33:58;;;;;;;;;;;;;;;29.98;26.54;96149.59;4941669;29;20002;-95
2023/10/27 01:36:24;;;;;;;;;;;;;;;30.12;26.25;96153.38;4941919;29;19907;-96
2023/10/27 01:38:50;;;;;;;;;;;;;;;29.90;26.49;96148.56;4931505;29;19903;-96
2023/10/27 01:41:17;;;;;;;;;;;;;;;29.69;26.49;96141.66;4931758;29;19987;-91
2023/10/27 01:43:43;;;;;;;;;;;;;;;29.78;26.48;96139.34;4929994;29;19911;-96
2023/10/27 01:46:09;;;;;;;;;;;;;;;29.68;26.37;96134.50;4923255;29;19914;-92
2023/10/27 01:48:36;;;;;;;;;;;;;;;29.42;26.54;96138.41;4923360;29;19942;-96
2023/10/27 01:51:03;;;;;;;;;;;;;;;29.22;26.97;96141.50;4920676;29;19923;-96
2023/10/27 01:53:31;;;;;;;;;;;;;;;28.72;27.95;96138.66;4916467;29;19920;-96
2023/10/27 01:55:57;;;;;;;;;;;;;;;28.08;28.79;96128.22;4932076;29;19990;-96
2023/10/27 01:58:27;;;;;;;;;;;;;;;27.98;28.97;96132.50;4935803;29;19926;-96
2023/10/27 02:00:53;;;;;;;;;;;;;;;28.16;28.38;96125.69;4926052;29;19946;-96
2023/10/27 02:03:26;;;;;;;;;;;;;;;28.15;28.29;96120.53;4925289;29;19923;-96
2023/10/27 02:05:52;;;;;;;;;;;;;;;28.44;28.36;96117.28;4934801;29;19933;-96
2023/10/27 02:08:19;;;;;;;;;;;;;;;28.43;27.74;96110.09;4929276;29;19907;-96
2023/10/27 02:10:45;;;;;;;;;;;;;;;28.76;27.46;96101.69;4916425;29;19926;-96
2023/10/27 02:13:11;;;;;;;;;;;;;;;28.78;27.36;96104.00;4919025;29;19923;-95
2023/10/27 02:15:37;;;;;;;;;;;;;;;28.94;27.39;96091.94;4914878;29;19981;-96
2023/10/27 02:18:04;;;;;;;;;;;;;;;29.04;26.93;96085.50;4933155;29;19931;-96
2023/10/27 02:20:32;;;;;;;;;;;;;;;28.70;27.77;96084.75;4918704;29;20210;-96
2023/10/27 02:22:58;;;;;;;;;;;;;;;28.78;27.73;96081.41;4924779;29;19947;-94
2023/10/27 02:25:24;;;;;;;;;;;;;;;28.78;27.47;96078.59;4932497;29;19933;-96
2023/10/27 02:27:50;;;;;;;;;;;;;;;28.95;27.27;96074.47;4912090;29;19923;-95
2023/10/27 02:30:16;;;;;;;;;;;;;;;29.16;26.61;96081.38;4934882;29;19904;-96
2023/10/27 02:32:42;;;;;;;;;;;;;;;29.47;26.31;96077.47;4937231;29;19933;-95
2023/10/27 02:35:08;;;;;;;;;;;;;;;29.64;26.01;96081.00;4940769;29;19951;-96
2023/10/27 02:37:34;;;;;;;;;;;;;;;29.67;25.61;96079.19;4934801;29;19915;-96
2023/10/27 02:40:00;;;;;;;;;;;;;;;29.55;26.08;96074.84;4930684;29;19926;-96
2023/10/27 02:42:26;;;;;;;;;;;;;;;29.11;26.69;96078.53;4924683;29;19924;-96
2023/10/27 02:44:52;;;;;;;;;;;;;;;29.41;25.87;96079.53;4920008;29;19923;-96
2023/10/27 02:47:18;;;;;;;;;;;;;;;29.62;25.95;96079.97;4906085;29;19927;-96
2023/10/27 02:49:44;;;;;;;;;;;;;;;29.55;25.98;96086.16;4924965;29;19919;-96
2023/10/27 02:52:10;;;;;;;;;;;;;;;29.39;26.09;96088.53;4929624;29;20303;-94
2023/10/27 02:54:36;;;;;;;;;;;;;;;29.35;26.15;96093.69;4902152;29;20005;-96
2023/10/27 02:57:02;;;;;;;;;;;;;;;28.88;26.93;96088.31;4910742;29;20050;-95
2023/10/27 02:59:28;;;;;;;;;;;;;;;28.87;27.23;96084.72;4927547;29;19944;-96
2023/10/27 03:01:54;;;;;;;;;;;;;;;28.86;26.94;96080.38;4937735;29;19903;-95
2023/10/27 03:04:20;;;;;;;;;;;;;;;28.63;27.37;96071.13;4929216;29;20340;-94
2023/10/27 03:06:46;;;;;;;;;;;;;;;28.78;26.70;96079.34;4935535;29;20018;-94
2023/10/27 03:09:12;;;;;;;;;;;;;;;29.24;26.71;96078.81;4932782;29;19957;-95
2023/10/27 03:11:38;;;;;;;;;;;;;;;29.32;26.12;96072.09;4939777;29;19926;-95
2023/10/27 03:14:04;;;;;;;;;;;;;;;29.24;26.10;96073.16;4936836;29;19923;-95
2023/10/27 03:16:31;;;;;;;;;;;;;;;29.44;25.73;96075.69;4938342;29;19943;-95
2023/10/27 03:18:57;;;;;;;;;;;;;;;29.32;25.76;96074.94;4939065;29;19927;-95
2023/10/27 03:21:23;;;;;;;;;;;;;;;29.26;25.78;96057.22;4921061;29;20316;-95
2023/10/27 03:23:49;;;;;;;;;;;;;;;29.09;25.99;96062.09;4933355;29;20010;-94
2023/10/27 03:26:15;;;;;;;;;;;;;;;29.06;26.21;96060.31;4912678;29;20418;-94
2023/10/27 03:28:41;;;;;;;;;;;;;;;29.36;25.92;96060.53;4920551;29;20311;-95
2023/10/27 03:31:12;;;;;;;;;;;;;;;29.66;25.09;96053.00;4914073;29;19928;-94
2023/10/27 03:33:38;;;;;;;;;;;;;;;29.73;25.23;96063.75;4905102;29;20017;-95
2023/10/27 03:36:05;;;;;;;;;;;;;;;29.24;25.70;96059.03;4930809;29;19924;-96
2023/10/27 03:38:31;;;;;;;;;;;;;;;28.83;26.08;96058.03;4930912;29;19907;-95
2023/10/27 03:40:57;;;;;;;;;;;;;;;29.30;25.36;96048.47;4926873;29;19931;-95
2023/10/27 03:43:23;;;;;;;;;;;;;;;29.59;25.22;96047.88;4930392;29;19923;-94
2023/10/27 03:45:49;;;;;;;;;;;;;;;29.51;25.51;96048.91;4937453;29;19930;-95
2023/10/27 03:48:15;;;;;;;;;;;;;;;29.22;25.69;96047.47;4934832;29;19978;-95
2023/10/27 03:50:41;;;;;;;;;;;;;;;29.33;25.39;96033.31;4936176;29;19931;-94
2023/10/27 03:53:07;;;;;;;;;;;;;;;28.94;26.12;96044.66;4929973;29;19907;-95
2023/10/27 03:55:33;;;;;;;;;;;;;;;28.95;26.00;96053.91;4919361;29;19923;-95
2023/10/27 03:58:15;;;;;;;;;;;;;;;28.38;26.84;96048.75;4923233;29;19923;-96
2023/10/27 04:00:41;;;;;;;;;;;;;;;27.72;28.41;96047.31;4931180;29;20387;-95
2023/10/27 04:03:07;;;;;;;;;;;;;;;27.87;27.77;96044.25;4925963;29;19930;-95
2023/10/27 04:05:42;;;;;;;;;;;;;;;28.14;27.27;96040.00;4928492;29;19930;-96
2023/10/27 04:08:08;;;;;;;;;;;;;;;28.08;27.50;96035.09;4919924;29;19927;-94
2023/10/27 04:10:35;;;;;;;;;;;;;;;28.43;27.31;96037.47;4923746;29;20045;-95
2023/10/27 04:13:02;;;;;;;;;;;;;;;28.31;27.33;96035.16;4921774;29;20005;-92
2023/10/27 04:15:28;;;;;;;;;;;;;;;28.44;27.42;96036.19;4913348;29;19923;-93
2023/10/27 04:17:54;;;;;;;;;;;;;;;28.61;26.87;96025.69;4917876;29;19960;-93
2023/10/27 04:20:20;;;;;;;;;;;;;;;28.53;26.93;96026.69;4912475;29;19923;-92
2023/10/27 04:22:46;;;;;;;;;;;;;;;28.17;27.63;96019.97;4907171;29;19962;-94
2023/10/27 04:25:12;;;;;;;;;;;;;;;27.95;27.87;96020.72;4914005;29;19927;-95
2023/10/27 04:27:38;;;;;;;;;;;;;;;27.16;28.93;96023.72;4913876;29;19979;-93
2023/10/27 04:30:07;;;;;;;;;;;;;;;27.05;29.20;96008.81;4913812;29;19927;-94
2023/10/27 04:32:38;;;;;;;;;;;;;;;27.49;28.58;96014.69;4913555;29;20417;-95
2023/10/27 04:35:04;;;;;;;;;;;;;;;28.13;27.75;96010.22;4911561;29;19924;-92
2023/10/27 04:37:33;;;;;;;;;;;;;;;28.46;26.99;96007.44;4911858;29;19972;-92
2023/10/27 04:39:59;;;;;;;;;;;;;;;28.76;26.59;96005.66;4911336;29;19946;-94
2023/10/27 04:42:26;;;;;;;;;;;;;;;29.05;26.22;96002.25;4884751;29;19930;-93
2023/10/27 04:44:52;;;;;;;;;;;;;;;29.52;25.56;95999.56;4896763;29;20384;-91
2023/10/27 04:47:19;;;;;;;;;;;;;;;29.84;25.27;95997.88;4918338;29;19959;-92
2023/10/27 04:49:45;;;;;;;;;;;;;;;29.90;24.70;95993.72;4895883;29;20277;-95
2023/10/27 04:52:12;;;;;;;;;;;;;;;29.61;25.30;95991.56;4926174;29;19926;-91
2023/10/27 04:54:38;;;;;;;;;;;;;;;29.12;26.16;95984.78;4902383;29;19923;-93
2023/10/27 04:57:04;;;;;;;;;;;;;;;28.83;26.50;95982.53;4915513;29;20299;-94
2023/10/27 04:59:30;;;;;;;;;;;;;;;28.55;27.21;95985.34;4917545;29;19930;-94
2023/10/27 05:01:56;;;;;;;;;;;;;;;28.67;26.69;95980.50;4908813;29;19931;-96
2023/10/27 05:04:22;;;;;;;;;;;;;;;28.23;27.57;95972.03;4898702;29;20303;-96
2023/10/27 05:06:50;;;;;;;;;;;;;;;28.12;27.87;95972.03;4910953;29;19989;-96
2023/10/27 05:09:18;;;;;;;;;;;;;;;28.13;27.67;95982.78;4906989;29;19950;-96
2023/10/27 05:11:45;;;;;;;;;;;;;;;28.36;27.45;95975.88;4913770;29;20436;-95
2023/10/27 05:14:12;;;;;;;;;;;;;;;28.45;27.28;95977.69;4916339;29;19965;-96
2023/10/27 05:16:38;;;;;;;;;;;;;;;28.52;27.12;95977.16;4899238;29;20010;-96
2023/10/27 05:19:04;;;;;;;;;;;;;;;28.30;27.49;95972.28;4911648;29;19951;-96
2023/10/27 05:21:30;;;;;;;;;;;;;;;28.37;27.47;95976.66;4915920;29;20041;-96
2023/10/27 05:23:57;;;;;;;;;;;;;;;28.20;27.57;95973.03;4915807;29;19919;-96
2023/10/27 05:26:24;;;;;;;;;;;;;;;28.14;27.63;95975.09;4917907;29;20021;-96
2023/10/27 05:28:50;;;;;;;;;;;;;;;27.60;28.71;95969.59;4916408;29;19923;-96
2023/10/27 05:31:16;;;;;;;;;;;;;;;26.87;29.72;95973.34;4911918;29;20273;-95
2023/10/27 05:33:42;;;;;;;;;;;;;;;27.45;28.71;95971.06;4917063;29;19923;-96
2023/10/27 05:36:08;;;;;;;;;;;;;;;27.75;28.47;95975.78;4900993;29;19998;-96
2023/10/27 05:38:34;;;;;;;;;;;;;;;27.70;28.34;95968.06;4911599;29;19991;-96
2023/10/27 05:41:00;;;;;;;;;;;;;;;27.89;28.26;95963.50;4914684;29;20380;-96
2023/10/27 05:43:26;;;;;;;;;;;;;;;27.82;28.30;95964.00;4911165;29;20333;-96
2023/10/27 05:45:53;;;;;;;;;;;;;;;27.78;28.48;95952.19;4903686;29;20480;-96
2023/10/27 05:48:19;;;;;;;;;;;;;;;28.19;27.79;95961.00;4914362;29;19935;-95
2023/10/27 05:50:45;;;;;;;;;;;;;;;28.40;27.59;95964.34;4911331;29;19994;-96
2023/10/27 05:53:11;;;;;;;;;;;;;;;28.16;27.67;95953.56;4913463;29;19925;-96
2023/10/27 05:55:37;;;;;;;;;;;;;;;28.08;27.83;95953.28;4893170;29;19920;-96
2023/10/27 05:58:04;;;;;;;;;;;;;;;28.17;27.68;95954.34;4912580;29;19946;-95
2023/10/27 06:00:30;;;;;;;;;;;;;;;28.45;27.46;95949.44;4916218;29;19923;-96
2023/10/27 06:02:56;;;;;;;;;;;;;;;28.44;27.32;95951.50;4913029;29;19930;-96
2023/10/27 06:05:23;;;;;;;;;;;;;;;28.27;27.59;95967.66;4913950;29;19935;-96
2023/10/27 06:07:49;;;;;;;;;;;;;;;28.25;27.56;95966.63;4924409;29;19923;-96
2023/10/27 06:10:15;;;;;;;;;;;;;;;28.05;27.94;95971.22;4920434;29;19979;-96
2023/10/27 06:12:41;;;;;;;;;;;;;;;28.42;27.36;95975.88;4911395;29;19920;-96
2023/10/27 06:15:07;;;;;;;;;;;;;;;28.64;27.08;95970.22;4916181;29;19920;-96
2023/10/27 06:17:33;;;;;;;;;;;;;;;27.84;28.22;95972.72;4916902;29;20020;-96
2023/10/27 06:20:02;;;;;;;;;;;;;;;27.66;28.52;95964.72;4911968;29;20380;-95
2023/10/27 06:22:29;;;;;;;;;;;;;;;26.61;30.18;95969.81;4921256;29;19927;-96
2023/10/27 06:24:55;;;;;;;;;;;;;;;26.65;30.09;95970.38;4937680;29;19915;-96
2023/10/27 06:27:21;;;;;;;;;;;;;;;27.53;28.95;95961.63;4908343;29;20360;-96
2023/10/27 06:29:47;;;;;;;;;;;;;;;27.83;28.47;95951.44;4904551;29;19919;-96
2023/10/27 06:32:14;;;;;;;;;;;;;;;27.43;29.02;95951.84;4922283;29;19919;-96
2023/10/27 06:34:40;;;;;;;;;;;;;;;27.74;28.59;95953.72;4921269;29;19923;-96
2023/10/27 06:37:07;;;;;;;;;;;;;;;28.30;27.78;95963.03;4920742;29;19923;-96
2023/10/27 06:39:36;;;;;;;;;;;;;;;28.82;27.32;95949.94;4923222;29;20454;-96
2023/10/27 06:42:02;;;;;;;;;;;;;;;29.02;26.90;95958.09;4916024;29;19941;-96
2023/10/27 06:44:28;;;;;;;;;;;;;;;29.40;26.52;95957.22;4919164;29;20296;-96
2023/10/27 06:46:56;;;;;;;;;;;;;;;29.24;26.66;95960.84;4920428;29;20348;-96
2023/10/27 06:49:22;;;;;;;;;;;;;;;29.10;27.03;95958.31;4918482;29;19919;-96
2023/10/27 06:51:48;;;;;;;;;;;;;;;29.21;26.95;95952.66;4919629;29;20014;-96
2023/10/27 06:54:14;;;;;;;;;;;;;;;29.28;26.66;95957.75;4904069;29;19926;-96
2023/10/27 06:56:40;;;;;;;;;;;;;;;29.23;26.74;95962.16;4921177;29;19930;-96
2023/10/27 06:59:06;;;;;;;;;;;;;;;29.19;26.71;95950.34;4902835;29;19923;-96
2023/10/27 07:01:32;;;;;;;;;;;;;;;29.09;27.08;95954.72;4904324;29;19942;-96
2023/10/27 07:03:58;;;;;;;;;;;;;;;28.64;27.66;95939.16;4920111;29;20009;-96
2023/10/27 07:06:25;;;;;;;;;;;;;;;28.44;28.22;95930.97;4921790;29;19920;-96
2023/10/27 07:08:51;;;;;;;;;;;;;;;28.87;27.70;95935.00;4931454;29;19925;-96
2023/10/27 07:11:17;;;;;;;;;;;;;;;29.72;26.68;95945.44;4920636;29;19918;-96
2023/10/27 07:13:43;;;;;;;;;;;;;;;30.20;26.14;95939.97;4920432;29;19919;-96
2023/10/27 07:16:09;;;;;;;;;;;;;;;30.41;25.62;95938.28;4920507;29;19951;-96
2023/10/27 07:18:35;;;;;;;;;;;;;;;30.65;25.27;95946.84;4920988;29;20407;-96
2023/10/27 07:21:04;;;;;;;;;;;;;;;30.79;24.84;95936.38;4923309;29;19919;-96
2023/10/27 07:23:31;;;;;;;;;;;;;;;29.93;26.09;95953.06;4927192;29;19919;-96
2023/10/27 07:25:57;;;;;;;;;;;;;;;29.38;27.04;95956.19;4939394;29;19919;-96
2023/10/27 07:28:23;;;;;;;;;;;;;;;29.16;27.22;95942.88;4940162;29;20276;-96
2023/10/27 07:30:49;;;;;;;;;;;;;;;29.58;27.08;95938.84;4920495;29;19919;-96
2023/10/27 07:33:15;;;;;;;;;;;;;;;29.05;27.35;95940.09;4907315;29;19919;-96
2023/10/27 07:35:41;;;;;;;;;;;;;;;29.10;27.60;95944.94;4922927;29;19926;-96
2023/10/27 07:38:07;;;;;;;;;;;;;;;29.03;27.48;95945.50;4918640;29;20376;-96
2023/10/27 07:40:34;;;;;;;;;;;;;;;28.68;27.96;95936.88;4922604;29;19923;-96
2023/10/27 07:43:01;;;;;;;;;;;;;;;28.98;27.74;95937.81;4936233;29;19922;-96
2023/10/27 07:45:27;;;;;;;;;;;;;;;28.94;27.89;95942.94;4941317;29;19926;-96
2023/10/27 07:47:53;;;;;;;;;;;;;;;29.07;27.55;95936.75;4927634;29;20016;-96
2023/10/27 07:50:19;;;;;;;;;;;;;;;29.20;27.35;95940.56;4928999;29;19947;-96
2023/10/27 07:52:45;;;;;;;;;;;;;;;27.93;28.97;95933.00;4929332;29;19919;-96
2023/10/27 07:55:11;;;;;;;;;;;;;;;27.54;29.74;95923.69;4923256;29;19920;-96
2023/10/27 07:57:37;;;;;;;;;;;;;;;27.10;30.50;95915.84;4923985;29;19977;-96
2023/10/27 08:00:04;;;;;;;;;;;;;;;27.46;30.12;95917.03;4921667;29;19920;-96
2023/10/27 08:02:33;;;;;;;;;;;;;;;28.05;29.31;95908.41;4903309;29;20257;-96
2023/10/27 08:04:59;;;;;;;;;;;;;;;27.73;29.81;95910.66;4921735;29;19919;-96
2023/10/27 08:07:25;;;;;;;;;;;;;;;28.28;28.95;95906.34;4919960;29;19919;-96
2023/10/27 08:09:51;;;;;;;;;;;;;;;28.45;29.01;95902.19;4918456;29;19919;-96
2023/10/27 08:12:17;;;;;;;;;;;;;;;28.27;29.14;95908.38;4914478;29;20415;-96
2023/10/27 08:14:44;;;;;;;;;;;;;;;27.94;29.35;95900.69;4903129;29;20349;-96
2023/10/27 08:17:10;;;;;;;;;;;;;;;27.87;29.61;95903.22;4928732;29;19958;-96
2023/10/27 08:19:36;;;;;;;;;;;;;;;28.18;29.32;95891.72;4923687;29;19923;-96
2023/10/27 08:22:02;;;;;;;;;;;;;;;27.93;29.61;95890.69;4921403;29;19929;-96
2023/10/27 08:24:28;;;;;;;;;;;;;;;28.55;29.17;95886.53;4930427;29;19930;-96
2023/10/27 08:26:54;;;;;;;;;;;;;;;28.85;28.84;95883.91;4922247;29;19908;-95
2023/10/27 08:29:20;;;;;;;;;;;;;;;29.21;27.95;95884.81;4904235;29;19923;-96
2023/10/27 08:31:46;;;;;;;;;;;;;;;28.47;28.73;95879.88;4919680;29;19925;-96
2023/10/27 08:34:12;;;;;;;;;;;;;;;27.94;29.48;95888.63;4939136;29;19973;-96
2023/10/27 08:36:39;;;;;;;;;;;;;;;28.18;29.55;95888.13;4950785;29;20272;-96
2023/10/27 08:39:06;;;;;;;;;;;;;;;28.36;29.55;95881.94;4931751;29;19982;-96
2023/10/27 08:41:33;;;;;;;;;;;;;;;27.89;30.12;95872.47;4926685;29;20045;-96
2023/10/27 08:43:59;;;;;;;;;;;;;;;26.63;31.98;95875.16;4917803;29;19919;-95
2023/10/27 08:46:26;;;;;;;;;;;;;;;26.21;32.47;95868.78;4901234;29;19920;-96
2023/10/27 08:48:53;;;;;;;;;;;;;;;27.04;31.55;95870.00;4918934;29;20287;-95
2023/10/27 08:51:20;;;;;;;;;;;;;;;27.73;30.52;95876.03;4933038;29;19926;-94
2023/10/27 08:53:46;;;;;;;;;;;;;;;27.68;30.26;95857.84;4918689;29;19926;-96
2023/10/27 08:56:13;;;;;;;;;;;;;;;28.22;29.76;95863.22;4918465;29;19919;-96
2023/10/27 08:58:40;;;;;;;;;;;;;;;28.86;28.71;95854.38;4918059;29;19925;-95
2023/10/27 09:01:06;;;;;;;;;;;;;;;29.22;28.57;95856.00;4917954;29;20327;-96
2023/10/27 09:03:32;;;;;;;;;;;;;;;29.73;27.88;95853.66;4917751;29;19916;-95
2023/10/27 09:05:58;;;;;;;;;;;;;;;29.79;27.74;95843.06;4918483;29;19919;-95
2023/10/27 09:08:24;;;;;;;;;;;;;;;30.17;27.16;95835.53;4919246;29;19926;-96
2023/10/27 09:10:50;;;;;;;;;;;;;;;30.15;26.94;95838.91;4918056;29;19919;-95
2023/10/27 09:13:20;;;;;;;;;;;;;;;30.18;27.46;95843.50;4911075;29;19919;-95
2023/10/27 09:15:46;;;;;;;;;;;;;;;30.49;26.88;95842.97;4899809;29;19919;-96
2023/10/27 09:18:13;;;;;;;;;;;;;;;30.23;26.93;95837.03;4915836;29;20025;-96
2023/10/27 09:20:49;;;;;;;;;;;;;;;29.93;27.86;95842.72;4915943;29;20292;-96
2023/10/27 09:23:15;;;;;;;;;;;;;;;30.39;27.24;95835.34;4918024;29;19920;-95
2023/10/27 09:25:41;;;;;;;;;;;;;;;30.41;27.30;95827.84;4916392;29;20329;-95
2023/10/27 09:28:07;;;;;;;;;;;;;;;30.21;27.16;95828.28;4918175;29;19923;-96
2023/10/27 09:30:37;;;;;;;;;;;;;;;30.04;27.78;95822.00;4916909;29;19997;-96
2023/10/27 09:33:10;;;;;;;;;;;;;;;30.03;27.81;95820.50;4918409;29;19915;-95
2023/10/27 09:35:36;;;;;;;;;;;;;;;30.16;27.88;95822.69;4903974;29;19924;-96
2023/10/27 09:38:03;;;;;;;;;;;;;;;30.57;27.32;95812.00;4914790;29;19933;-96
2023/10/27 09:40:29;;;;;;;;;;;;;;;30.59;27.08;95823.56;4915247;29;19928;-95
2023/10/27 09:42:58;;;;;;;;;;;;;;;30.41;27.33;95813.69;4927417;29;19915;-96
2023/10/27 09:45:26;;;;;;;;;;;;;;;30.42;27.28;95806.75;4914883;29;19923;-95
2023/10/27 09:47:58;;;;;;;;;;;;;;;30.56;27.16;95799.88;4917040;29;19981;-96
2023/10/27 09:50:24;;;;;;;;;;;;;;;30.59;27.49;95795.22;4917324;29;20021;-96
2023/10/27 09:52:51;;;;;;;;;;;;;;;30.55;27.33;95798.34;4916747;29;19983;-96
2023/10/27 09:55:18;;;;;;;;;;;;;;;30.21;27.78;95790.72;4916772;29;19938;-95
2023/10/27 09:57:44;;;;;;;;;;;;;;;28.96;29.80;95784.22;4906528;29;19919;-96
2023/10/27 10:00:13;;;;;;;;;;;;;;;28.05;31.35;95781.47;4900912;29;19971;-96
2023/10/27 10:02:41;;;;;;;;;;;;;;;27.12;32.99;95780.88;4917593;29;19927;-95
2023/10/27 10:05:09;;;;;;;;;;;;;;;26.84;33.51;95777.22;4900186;29;19982;-94
2023/10/27 10:07:37;;;;;;;;;;;;;;;27.28;32.87;95765.31;4916519;29;19919;-94
2023/10/27 10:10:22;;;;;;;;;;;;;;;27.38;32.39;95766.59;4917407;29;20387;-94
2023/10/27 10:12:56;;;;;;;;;;;;;;;28.51;30.81;95761.03;4915373;29;19962;-95
2023/10/27 10:15:23;;;;;;;;;;;;;;;29.08;29.65;95765.91;4923084;29;20081;-95
2023/10/27 10:17:49;;;;;;;;;;;;;;;29.78;28.76;95760.25;4914523;29;19930;-94
2023/10/27 10:20:15;;;;;;;;;;;;;;;29.86;28.34;95754.78;4917480;29;20299;-95
2023/10/27 10:22:44;;;;;;;;;;;;;;;30.10;28.37;95754.81;4918000;29;19919;-95
2023/10/27 10:25:19;;;;;;;;;;;;;;;30.50;28.04;95748.19;4917049;29;19927;-95
2023/10/27 10:28:04;;;;;;;;;;;;;;;30.61;27.19;95736.75;4914758;29;19923;-95
2023/10/27 10:30:30;;;;;;;;;;;;;;;29.81;28.50;95733.75;4925256;29;20048;-96
2023/10/27 10:33:14;;;;;;;;;;;;;;;29.50;29.30;95731.44;4923939;29;19926;-96
2023/10/27 10:35:41;;;;;;;;;;;;;;;28.96;30.33;95722.06;4917654;29;19919;-96
2023/10/27 10:38:19;;;;;;;;;;;;;;;27.68;31.58;95711.22;4918805;29;20399;-96
2023/10/27 10:40:53;;;;;;;;;;;;;;;27.97;31.46;95707.84;4907666;29;19919;-96
2023/10/27 10:46:28;;;;;;;;;;;;;;;26.31;34.42;95690.06;4929245;29;20005;-96
2023/10/27 10:48:54;;;;;;;;;;;;;;;25.50;35.54;95690.66;4931104;29;19934;-96
2023/10/27 10:51:36;;;;;;;;;;;;;;;25.17;36.24;95679.91;4923271;29;19919;-96
2023/10/27 10:54:03;;;;;;;;;;;;;;;24.83;36.93;95661.28;4924777;29;20011;-96
2023/10/27 10:56:29;;;;;;;;;;;;;;;25.32;36.21;95658.06;4916715;29;19919;-96
2023/10/27 10:58:56;;;;;;;;;;;;;;;24.90;37.10;95655.19;4917242;29;20356;-96
2023/10/27 11:01:22;;;;;;;;;;;;;;;23.75;39.54;95647.03;4929312;29;20399;-95
2023/10/27 11:03:50;;;;;;;;;;;;;;;22.93;41.33;95650.16;4920878;29;19947;-94
2023/10/27 11:06:22;;;;;;;;;;;;;;;22.44;42.31;95639.63;4932222;29;19923;-96
2023/10/27 11:08:49;;;;;;;;;;;;;;;22.75;41.66;95636.38;4942136;29;19954;-96
2023/10/27 11:11:18;;;;;;;;;;;;;;;23.00;41.35;95630.16;4921187;29;19926;-96
2023/10/27 11:13:51;;;;;;;;;;;;;;;24.67;37.88;95628.16;4911161;29;19942;-95
2023/10/27 11:16:18;;;;;;;;;;;;;;;24.21;38.73;95614.22;4932059;29;19919;-96
2023/10/27 11:18:45;;;;;;;;;;;;;;;24.17;38.91;95624.13;4926555;29;19959;-96
2023/10/27 11:21:18;;;;;;;;;;;;;;;24.29;38.06;95617.38;4927586;29;19948;-96
2023/10/27 11:23:45;;;;;;;;;;;;;;;26.21;34.84;95616.38;4939764;29;19926;-96
2023/10/27 11:26:11;;;;;;;;;;;;;;;24.79;37.45;95620.63;4928052;29;19919;-96
2023/10/27 11:28:38;;;;;;;;;;;;;;;26.39;34.48;95613.09;4935514;29;19920;-96
2023/10/27 11:31:15;;;;;;;;;;;;;;;26.44;34.33;95617.94;4935116;29;20391;-94
2023/10/27 11:33:57;;;;;;;;;;;;;;;26.90;33.58;95608.31;4930533;29;19941;-96
2023/10/27 11:36:26;;;;;;;;;;;;;;;25.94;35.39;95612.19;4927114;29;19927;-95
2023/10/27 11:38:52;;;;;;;;;;;;;;;26.88;33.72;95605.22;4917049;29;19930;-96
2023/10/27 11:41:19;;;;;;;;;;;;;;;27.62;32.12;95608.22;4925241;29;19923;-96
2023/10/27 11:43:45;;;;;;;;;;;;;;;27.53;32.34;95605.69;4925428;29;19931;-96
2023/10/27 11:46:15;;;;;;;;;;;;;;;26.45;34.60;95599.03;4927901;29;19923;-96
2023/10/27 11:48:42;;;;;;;;;;;;;;;27.03;33.21;95611.34;4918150;29;19931;-95
2023/10/27 11:51:08;;;;;;;;;;;;;;;24.44;37.52;95610.38;4913133;29;20014;-96
2023/10/27 11:53:34;;;;;;;;;;;;;;;24.80;37.45;95608.94;4926013;29;19975;-96
2023/10/27 11:56:03;;;;;;;;;;;;;;;24.66;37.50;95616.19;4933671;29;19903;-94
2023/10/27 11:58:29;;;;;;;;;;;;;;;23.94;39.26;95615.41;4928378;29;19923;-96
2023/10/27 12:00:55;;;;;;;;;;;;;;;24.42;38.27;95615.72;4930096;29;19926;-96
2023/10/27 12:03:21;;;;;;;;;;;;;;;24.53;37.97;95615.81;4927893;29;20355;-96
2023/10/27 12:05:47;;;;;;;;;;;;;;;23.34;40.46;95619.00;4911709;29;19971;-96
2023/10/27 12:08:13;;;;;;;;;;;;;;;24.34;38.91;95613.84;4912944;29;19974;-96
2023/10/27 12:10:39;;;;;;;;;;;;;;;23.89;39.47;95623.78;4910844;29;19919;-95
2023/10/27 12:13:08;;;;;;;;;;;;;;;25.59;36.27;95611.00;4909367;29;20020;-96
2023/10/27 12:15:35;;;;;;;;;;;;;;;26.41;34.86;95610.56;4946968;29;20294;-96
2023/10/27 12:18:04;;;;;;;;;;;;;;;27.01;33.58;95611.09;4944150;29;19927;-96
2023/10/27 12:20:31;;;;;;;;;;;;;;;26.12;34.61;95608.16;4931713;29;19977;-96
2023/10/27 12:22:57;;;;;;;;;;;;;;;25.97;35.04;95599.94;4913601;29;19926;-96
2023/10/27 12:25:23;;;;;;;;;;;;;;;24.54;38.05;95597.72;4923882;29;19987;-96
2023/10/27 12:27:49;;;;;;;;;;;;;;;23.52;40.33;95606.78;4921205;29;19920;-96
2023/10/27 12:30:15;;;;;;;;;;;;;;;23.12;41.16;95599.06;4904157;29;20396;-96
2023/10/27 12:32:42;;;;;;;;;;;;;;;24.25;39.41;95600.00;4926594;29;19966;-96
2023/10/27 12:35:08;;;;;;;;;;;;;;;22.44;42.88;95584.50;4917579;29;19923;-93
2023/10/27 12:37:35;;;;;;;;;;;;;;;22.18;43.59;95580.72;4917871;29;19919;-94
2023/10/27 12:40:04;;;;;;;;;;;;;;;21.85;44.76;95578.09;4918027;29;19923;-93
2023/10/27 12:42:30;;;;;;;;;;;;;;;20.37;49.49;95565.94;4911476;29;19927;-90
2023/10/27 12:44:57;;;;;;;;;;;;;;;20.99;48.06;95563.31;4913346;29;20387;-92
2023/10/27 12:47:23;;;;;;;;;;;;;;;21.11;47.79;95551.19;4919672;29;19931;-94
2023/10/27 12:49:49;;;;;;;;;;;;;;;20.46;50.19;95540.03;4924064;29;19930;-94